Latest Weather Observations for Lord Howe Island

IDN60801

Issued at 11:05 pm EST Tuesday 22 July 2014 (issued every 30 minutes, with the page automatically refreshed every 10 minutes)

About weather observations | Map of weather stations | Latest weather observations for NSW | Other Formats
Station Details ID: 200839 Name: LORD HOWE ISLAND AERO Lat: -31.54 Lon: 159.08 Height: 5.0 m
Data from the previous 72 hours. | See also: Recent months at Lord Howe Island
Date/Time
EST
Temp
°C
App
Temp
°C
Dew
Point
Rel
Hum
%
Delta-T
°C
Wind Press
QNH
hPa
Press
MSL
hPa
Rain
since 9 am
mm
Dir
 
Spd
km/h
Gust
km/h
Spd
kts
Gust
kts
22/11:00pm 14.7 12.8 9.0 68 2.9 SSE 9 26 5 14 1019.9 - 0.2
22/10:30pm 14.6 12.7 8.9 68 2.9 SW 9 24 5 13 1020.1 - 0.2
22/10:00pm 14.7 13.1 8.8 68 3.0 SSE 7 15 4 8 1020.2 - 0.2
22/09:30pm 15.1 12.7 8.6 65 3.3 SSW 11 24 6 13 1020.3 - 0.2
22/09:00pm 15.1 12.5 9.2 68 3.0 SSW 13 20 7 11 1020.2 - 0.2
22/08:30pm 14.9 12.1 10.1 73 2.5 SSW 15 24 8 13 1020.0 1020.0 0.2
22/08:00pm 15.0 13.0 7.0 59 3.9 S 7 13 4 7 1020.0 - 0.2
22/07:30pm 15.4 12.1 6.5 55 4.3 S 13 20 7 11 1020.0 - 0.2
22/07:00pm 15.1 12.7 6.9 58 4.0 SSE 9 13 5 7 1020.0 - 0.2
22/06:30pm 15.3 12.0 6.4 55 4.3 SSW 13 26 7 14 1019.9 - 0.2
22/06:00pm 14.7 12.7 6.4 57 4.0 S 6 11 3 6 1019.7 - 0.2
22/05:30pm 15.0 12.3 5.5 53 4.5 S 9 17 5 9 1019.4 1019.4 0.2
22/05:00pm 15.3 12.2 5.6 52 4.6 S 11 17 6 9 1019.1 - 0.2
22/04:30pm 15.3 11.4 6.9 57 4.1 SSW 17 28 9 15 1018.9 - 0.2
22/04:00pm 15.9 12.1 7.7 58 4.1 SSW 17 26 9 14 1018.8 - 0.2
22/03:30pm 16.0 12.1 8.5 61 3.8 SSW 19 33 10 18 1018.6 - 0.2
22/03:00pm 16.8 13.5 9.5 62 3.8 SSW 17 30 9 16 1018.5 - 0.2
22/02:30pm 17.2 14.0 9.8 61 3.9 SSW 17 24 9 13 1018.5 1018.5 0.2
22/02:00pm 16.8 13.5 9.5 62 3.8 SSW 17 28 9 15 1018.4 - 0.2
22/01:30pm 17.3 13.9 9.0 58 4.3 SSW 17 28 9 15 1018.3 - 0.2
22/01:00pm 17.5 14.6 9.7 60 4.1 SSW 15 26 8 14 1018.5 - 0.2
22/12:30pm 17.5 14.2 9.5 59 4.2 SSW 17 28 9 15 1018.8 - 0.0
22/12:00pm 17.7 14.0 9.5 58 4.3 SSW 19 33 10 18 1019.1 - 0.0
22/11:30am 17.5 14.1 9.0 57 4.4 SW 17 28 9 15 1019.6 1019.6 0.0
22/11:00am 17.5 14.5 9.4 59 4.2 SW 15 20 8 11 1020.1 - 0.0
22/10:30am 17.3 14.2 9.0 58 4.3 SSW 15 24 8 13 1020.7 - 0.0
22/10:00am 17.1 14.3 8.7 57 4.3 SSW 13 22 7 12 1021.0 - 0.0
22/09:30am 16.6 13.0 8.3 58 4.2 SSW 17 32 9 17 1021.4 - 0.0
22/09:00am 17.1 15.0 9.6 61 3.9 SSW 11 17 6 9 1021.3 - 0.0
22/08:30am 16.8 13.3 7.4 54 4.7 SSW 15 20 8 11 1021.2 1021.2 0.4
22/08:00am 16.0 12.7 8.0 59 4.0 SSW 15 20 8 11 1021.0 - 0.4
22/07:30am 15.5 13.2 7.4 58 4.0 S 9 19 5 10 1020.8 - 0.4
22/07:00am 15.1 13.3 7.9 62 3.6 S 7 13 4 7 1020.7 - 0.4
22/06:30am 14.3 12.7 8.1 66 3.1 SSE 6 11 3 6 1020.6 - 0.4
22/06:00am 14.1 12.3 7.3 63 3.3 S 6 13 3 7 1020.3 - 0.4
22/05:30am 14.5 12.6 7.6 63 3.4 S 7 11 4 6 1020.0 1020.0 0.4
22/05:00am 14.4 12.5 7.5 63 3.4 SSW 7 13 4 7 1019.8 - 0.4
22/04:30am 14.5 12.8 7.6 63 3.4 S 6 13 3 7 1019.7 - 0.4
22/04:00am 12.7 11.6 8.5 75 2.1 S 4 9 2 5 1019.7 - 0.4
22/03:30am 13.1 12.6 7.8 70 2.6 CALM 0 0 0 0 1019.8 - 0.4
22/03:00am 13.8 12.1 7.5 66 3.1 SSE 6 11 3 6 1019.9 - 0.4
22/02:30am 14.6 12.3 7.5 62 3.5 S 9 15 5 8 1020.1 1020.1 0.4
22/02:00am 14.6 12.9 7.5 62 3.5 SSE 6 11 3 6 1020.2 - 0.4
22/01:30am 13.3 12.0 7.6 68 2.8 SSE 4 9 2 5 1020.3 - 0.4
22/01:00am 12.4 11.6 8.1 75 2.1 W 2 9 1 5 1020.6 - 0.4
22/12:30am 13.7 13.0 8.7 72 2.5 S 2 11 1 6 1020.7 - 0.4
22/12:00am 14.5 13.1 8.8 68 2.9 SSE 6 13 3 7 1020.7 - 0.4
 
Date/Time
EST
Temp
°C
App
Temp
°C
Dew
Point
Rel
Hum
%
Delta-T
°C
Wind Press
QNH
hPa
Press
MSL
hPa
Rain
since 9 am
mm
Dir
 
Spd
km/h
Gust
km/h
Spd
kts
Gust
kts
21/11:30pm 14.1 12.0 8.3 68 2.9 SSW 9 15 5 8 1021.0 1021.0 0.4
21/11:00pm 14.4 12.2 7.7 64 3.3 SSW 9 13 5 7 1021.0 - 0.4
21/10:30pm 14.4 12.6 9.5 72 2.5 SSW 9 19 5 10 1021.3 - 0.4
21/10:00pm 14.8 11.6 10.0 73 2.5 SSW 17 30 9 16 1021.4 - 0.4
21/09:30pm 14.4 12.8 7.9 65 3.2 S 6 13 3 7 1021.5 - 0.4
21/09:00pm 14.1 12.1 8.5 69 2.8 SSW 9 17 5 9 1021.5 - 0.4
21/08:30pm 12.6 11.9 9.9 83 1.4 S 4 7 2 4 1021.6 1021.6 0.4
21/08:00pm 12.5 11.5 10.4 87 1.1 S 6 9 3 5 1021.7 - 0.4
21/07:30pm 12.8 11.1 9.9 82 1.5 SSW 9 9 5 5 1021.7 - 0.4
21/07:00pm 14.4 11.9 9.7 73 2.4 WSW 13 20 7 11 1021.6 - 0.4
21/06:30pm 15.3 12.6 7.4 59 3.9 SSW 11 20 6 11 1021.3 - 0.4
21/06:00pm 14.6 12.5 6.8 59 3.8 SSW 7 13 4 7 1021.2 - 0.4
21/05:30pm 15.0 12.5 6.5 57 4.1 S 9 17 5 9 1020.9 1020.9 0.4
21/05:00pm 15.5 11.8 6.2 54 4.5 SSW 15 26 8 14 1020.8 - 0.4
21/04:30pm 15.8 12.4 6.0 52 4.7 SSW 13 28 7 15 1020.6 - 0.4
21/04:00pm 16.1 12.6 5.4 49 5.1 SSW 13 24 7 13 1020.4 - 0.4
21/03:30pm 16.5 13.4 5.7 49 5.2 SSW 11 20 6 11 1020.5 - 0.4
21/03:00pm 16.9 13.1 6.0 48 5.3 SSW 15 28 8 15 1020.3 - 0.4
21/02:30pm 16.9 12.6 5.4 46 5.5 SSW 17 28 9 15 1020.3 1020.3 0.4
21/02:00pm 17.2 12.5 5.0 44 5.8 SSW 19 30 10 16 1020.2 - 0.4
21/01:30pm 17.4 12.9 6.1 47 5.5 SSW 19 28 10 15 1020.3 - 0.4
21/01:00pm 17.3 13.2 6.3 48 5.4 SSW 17 35 9 19 1020.4 - 0.4
21/12:30pm 17.4 13.7 6.1 47 5.5 SSW 15 28 8 15 1020.6 - 0.4
21/12:00pm 17.5 14.2 6.5 48 5.4 SSW 13 30 7 16 1021.0 - 0.4
21/11:30am 17.1 13.9 5.2 45 5.7 SSW 11 20 6 11 1021.3 1021.3 0.4
21/11:00am 17.1 13.6 5.4 46 5.6 SSW 13 26 7 14 1021.8 - 0.0
21/10:30am 17.2 13.8 5.8 47 5.5 S 13 26 7 14 1022.0 - 0.0
21/10:00am 16.9 12.9 6.5 50 5.1 SSW 17 32 9 17 1022.4 - 0.0
21/09:30am 17.0 13.2 7.4 53 4.8 S 17 39 9 21 1022.4 - 0.0
21/09:00am 17.0 13.2 5.8 47 5.4 S 15 22 8 12 1022.5 - 0.0
21/08:30am 16.7 12.3 7.5 54 4.6 SSW 20 28 11 15 1022.5 1022.5 0.2
21/08:00am 16.1 12.0 7.7 57 4.2 SSW 19 35 10 19 1022.2 - 0.2
21/07:30am 15.9 11.8 8.8 62 3.6 SW 20 24 11 13 1021.8 - 0.2
21/07:00am 15.4 13.3 9.6 68 3.0 SSE 11 17 6 9 1021.7 - 0.2
21/06:30am 15.0 12.9 9.6 70 2.8 SSE 11 19 6 10 1021.4 - 0.2
21/06:00am 15.4 13.1 8.9 65 3.3 S 11 20 6 11 1021.1 - 0.2
21/05:30am 15.8 13.2 9.2 65 3.4 S 13 22 7 12 1020.7 1020.7 0.2
21/05:00am 15.6 12.8 8.7 63 3.5 S 13 24 7 13 1020.4 - 0.2
21/04:30am 15.3 12.4 9.7 69 2.9 SSW 15 28 8 15 1020.2 - 0.2
21/04:00am 15.5 12.0 10.1 70 2.8 SSW 19 33 10 18 1020.1 - 0.2
21/03:30am 15.5 12.2 7.9 60 3.8 SSW 15 30 8 16 1020.1 - 0.2
21/03:00am 15.4 12.4 7.8 60 3.8 SSW 13 26 7 14 1020.1 - 0.2
21/02:30am 14.9 13.0 9.0 68 3.0 S 9 19 5 10 1020.2 1020.2 0.2
21/02:00am 16.2 12.3 7.3 55 4.4 SSW 17 39 9 21 1020.1 - 0.0
21/01:30am 15.7 11.6 6.4 54 4.5 SSW 17 32 9 17 1020.2 - 0.0
21/01:00am 15.9 12.2 7.9 59 4.0 SSW 17 22 9 12 1020.4 - 0.0
21/12:30am 15.9 12.3 6.9 55 4.4 SSW 15 24 8 13 1020.4 - 0.0
21/12:00am 16.0 12.4 6.6 53 4.6 SSW 15 28 8 15 1020.1 - 0.0
 
Date/Time
EST
Temp
°C
App
Temp
°C
Dew
Point
Rel
Hum
%
Delta-T
°C
Wind Press
QNH
hPa
Press
MSL
hPa
Rain
since 9 am
mm
Dir
 
Spd
km/h
Gust
km/h
Spd
kts
Gust
kts
20/11:30pm 16.0 11.7 6.8 54 4.5 SSW 19 37 10 20 1020.1 1020.1 0.0
20/11:00pm 16.1 12.9 6.9 54 4.5 SSW 13 24 7 13 1020.2 - 0.0
20/10:30pm 16.1 12.0 6.2 52 4.8 SSW 17 35 9 19 1020.1 - 0.0
20/10:00pm 16.2 12.3 5.5 49 5.1 SSW 15 30 8 16 1020.1 - 0.0
20/09:30pm 15.7 12.2 8.8 63 3.5 SW 17 30 9 16 1020.1 - 0.0
20/09:00pm 16.1 12.6 8.6 61 3.8 SSW 17 30 9 16 1020.3 - 0.0
20/08:30pm 16.4 12.8 8.3 58 4.1 SSW 17 28 9 15 1020.1 1020.1 0.0
20/08:00pm 16.4 12.4 8.1 58 4.2 SSW 19 32 10 17 1019.9 - 0.0
20/07:30pm 16.6 13.3 6.6 51 4.9 SSW 13 20 7 11 1019.8 - 0.0
20/07:00pm 16.1 12.8 6.2 52 4.8 SSW 13 24 7 13 1019.9 - 0.0
20/06:30pm 15.9 13.6 5.9 51 4.8 NE 7 20 4 11 1019.3 - 0.0
20/06:00pm 16.2 12.9 6.6 53 4.7 S 13 26 7 14 1018.8 - 0.0
20/05:30pm 16.4 13.8 7.8 56 4.3 S 11 20 6 11 1018.4 1018.4 0.0
20/05:00pm 16.5 13.8 7.2 54 4.6 SSW 11 24 6 13 1017.8 - 0.0
20/04:30pm 16.7 13.8 6.7 51 4.9 SSW 11 22 6 12 1017.7 - 0.0
20/04:00pm 17.1 13.3 7.5 53 4.8 SW 17 37 9 20 1017.4 - 0.0
20/03:30pm 17.6 14.6 7.9 53 4.9 SW 13 24 7 13 1017.1 - 0.0
20/03:00pm 18.0 15.6 8.7 54 4.8 SSW 11 20 6 11 1016.8 - 0.0
20/02:30pm 18.0 15.2 8.5 53 4.9 WSW 13 33 7 18 1016.6 1016.6 0.0
20/02:00pm 17.6 13.6 8.9 56 4.5 WSW 20 26 11 14 1016.5 - 0.0
20/01:30pm 17.6 14.9 8.9 56 4.5 SSW 13 30 7 16 1016.3 - 0.0
20/01:00pm 17.9 15.9 8.8 55 4.7 SSW 9 26 5 14 1016.1 - 0.0
20/12:30pm 17.8 15.8 8.5 54 4.8 S 9 22 5 12 1016.0 - 0.0
20/12:00pm 18.2 15.4 8.5 53 5.0 WSW 13 28 7 15 1016.0 - 0.0
20/11:30am 17.3 15.2 9.9 62 3.9 SW 11 20 6 11 1016.1 1016.1 0.0
20/11:00am 17.9 15.6 9.0 56 4.6 SSW 11 32 6 17 1016.3 - 0.0
20/10:30am 18.5 16.7 9.4 55 4.8 W 9 17 5 9 1016.3 - 0.0
20/10:00am 18.1 16.1 8.8 54 4.8 SE 9 19 5 10 1016.1 - 0.0
20/09:30am 17.7 15.8 9.0 56 4.5 WSW 9 20 5 11 1015.9 - 0.0
20/09:00am 17.0 15.1 10.4 65 3.5 SSW 11 19 6 10 1015.7 - 0.0
20/08:30am 15.9 14.7 11.6 75 2.3 S 9 26 5 14 1015.5 1015.5 6.2
20/08:00am 16.0 13.9 11.1 72 2.6 E 13 22 7 12 1015.1 - 5.8
20/07:42am 16.1 14.2 10.4 69 3.0 SSE 11 17 6 9 1014.9 - 5.8
20/07:30am 15.5 13.7 11.0 74 2.4 WSW 11 30 6 16 1014.8 - 5.8
20/07:23am 15.7 13.4 10.6 71 2.7 SSW 13 30 7 16 1014.6 - 5.8
20/07:00am 16.2 13.8 9.9 66 3.3 ESE 13 28 7 15 1014.2 - 5.6
20/06:30am 15.2 14.1 9.8 70 2.8 SE 6 11 3 6 1013.8 - 5.6
20/06:00am 15.8 13.8 10.1 69 3.0 E 11 33 6 18 1013.3 - 5.6
20/05:30am 15.0 13.3 11.1 77 2.1 E 11 24 6 13 1012.8 1012.8 5.6
20/05:00am 15.1 11.8 11.0 76 2.2 E 19 30 10 16 1012.5 - 5.6
20/04:30am 16.4 12.1 9.5 63 3.6 SSW 22 48 12 26 1012.0 - 5.6
20/04:21am 16.3 10.4 8.9 61 3.8 SSW 30 48 16 26 1012.1 - 5.6
20/04:00am 16.0 12.8 9.9 67 3.2 S 17 32 9 17 1011.8 - 5.6
20/03:30am 16.5 12.6 10.9 69 3.0 SSW 22 37 12 20 1011.3 - 5.6
20/03:00am 16.4 12.5 12.0 75 2.4 SSW 24 39 13 21 1011.2 - 5.6
20/02:30am 16.2 13.4 13.2 82 1.7 SSW 20 32 11 17 1011.0 1011.0 5.6
20/02:14am 15.7 13.4 13.0 84 1.5 SSW 17 28 9 15 1010.9 - 5.6
20/02:00am 15.0 11.8 11.9 82 1.7 SSW 20 48 11 26 1011.0 - 5.4
20/01:58am 15.2 11.5 11.5 78 2.0 SSW 22 48 12 26 1011.1 - 5.4
20/01:52am 15.8 10.9 11.3 74 2.4 SSW 28 48 15 26 1011.1 - 4.4
20/01:30am 16.5 11.8 10.5 67 3.2 SSW 26 43 14 23 1010.8 - 4.4
20/01:00am 16.2 11.3 11.2 72 2.7 SSW 28 48 15 26 1010.8 - 4.4
20/12:35am 15.8 11.1 12.1 78 2.0 SSW 28 50 15 27 1010.6 - 4.4
20/12:34am 15.9 11.2 12.1 78 2.1 SSW 28 50 15 27 1010.5 - 4.4
20/12:30am 15.9 11.9 13.0 83 1.6 SSW 26 39 14 21 1010.4 - 4.4
20/12:13am 15.7 11.8 13.4 86 1.3 SSW 26 59 14 32 1010.3 - 4.2
20/12:00am 15.9 11.0 12.4 80 1.9 SSW 30 50 16 27 1010.4 - 3.4
 
Date/Time
EST
Temp
°C
App
Temp
°C
Dew
Point
Rel
Hum
%
Delta-T
°C
Wind Press
QNH
hPa
Press
MSL
hPa
Rain
since 9 am
mm
Dir
 
Spd
km/h
Gust
km/h
Spd
kts
Gust
kts
19/11:52pm 15.6 10.6 12.3 81 1.8 SSW 30 50 16 27 1010.3 - 3.4
19/11:38pm 14.9 10.3 12.3 84 1.4 SSW 28 48 15 26 1010.3 - 3.4
19/11:30pm 15.3 11.7 13.1 87 1.2 SSW 24 39 13 21 1010.1 1010.1 3.2
19/11:12pm 16.0 10.7 12.6 80 1.9 SSW 32 57 17 31 1010.2 - 1.2
19/11:00pm 16.8 12.0 11.7 72 2.8 SSW 28 48 15 26 1009.9 - 1.0

Other Formats:

Comma delimited format used in spreadsheet applications
http://www.bom.gov.au/fwo/IDN60801/IDN60801.94995.axf

JavaScript Object Notation format (JSON) in row-major order
http://www.bom.gov.au/fwo/IDN60801/IDN60801.94995.json